createdAt,value
2023-05-10T00:02:58.926Z,96858.72
2023-05-10T00:08:00.964Z,96856.91
2023-05-10T00:13:03.014Z,96850.19
2023-05-10T00:18:06.500Z,96850.66
2023-05-10T00:23:08.496Z,96846.84
2023-05-10T00:28:10.448Z,96843.91
2023-05-10T00:33:13.855Z,96844.69
2023-05-10T00:38:15.884Z,96843.47
2023-05-10T00:43:18.078Z,96835.78
2023-05-10T00:48:22.530Z,96832.75
2023-05-10T00:53:25.597Z,96829.66
2023-05-10T00:58:29.280Z,96827.41
2023-05-10T01:03:33.325Z,96828.75
2023-05-10T01:08:35.397Z,96823.50
2023-05-10T01:13:40.352Z,96820.34
2023-05-10T01:18:44.875Z,96810.09
2023-05-10T01:24:07.614Z,96806.38
2023-05-10T01:29:19.894Z,96807.31
2023-05-10T01:34:28.250Z,96811.91
2023-05-10T01:39:36.930Z,96802.63
2023-05-10T01:44:44.078Z,96793.91
2023-05-10T01:49:51.441Z,96790.56
2023-05-10T01:54:57.075Z,96793.31
2023-05-10T02:00:01.814Z,96790.25
2023-05-10T02:05:06.996Z,96791.03
2023-05-10T02:10:10.860Z,96774.63
2023-05-10T02:15:15.750Z,96774.50
2023-05-10T02:20:20.401Z,96771.88
2023-05-10T02:25:24.271Z,96762.41
2023-05-10T02:30:27.061Z,96769.13
2023-05-10T02:35:31.830Z,96771.00
2023-05-10T02:40:34.913Z,96771.00
2023-05-10T02:45:39.815Z,96773.75
2023-05-10T02:50:48.705Z,96764.22
2023-05-10T02:55:53.705Z,96769.13
2023-05-10T03:00:55.786Z,96763.91
2023-05-10T03:06:02.205Z,96761.91
2023-05-10T03:11:23.262Z,96766.03
2023-05-10T03:16:30.312Z,96757.06
2023-05-10T03:21:36.182Z,96757.81
2023-05-10T03:26:39.484Z,96761.06
2023-05-10T03:31:41.772Z,96756.50
2023-05-10T03:36:45.175Z,96755.69
2023-05-10T03:41:47.101Z,96751.03
2023-05-10T03:46:49.097Z,96735.09
2023-05-10T03:51:52.733Z,96739.88
2023-05-10T03:56:54.723Z,96726.03
2023-05-10T04:01:56.711Z,96727.47
2023-05-10T04:07:00.039Z,96736.91
2023-05-10T04:12:03.301Z,96738.72
2023-05-10T04:17:05.392Z,96737.94
2023-05-10T04:22:08.782Z,96743.28
2023-05-10T04:27:10.810Z,96747.50
2023-05-10T04:32:12.802Z,96734.72
2023-05-10T04:37:16.053Z,96723.31
2023-05-10T04:42:18.070Z,96731.53
2023-05-10T04:47:20.069Z,96728.06
2023-05-10T04:52:23.496Z,96727.53
2023-05-10T04:57:25.621Z,96722.56
2023-05-10T05:02:27.668Z,96726.88
2023-05-10T05:07:31.663Z,96720.78
2023-05-10T05:12:33.724Z,96718.66
2023-05-10T05:17:35.753Z,96715.53
2023-05-10T05:22:39.190Z,96718.66
2023-05-10T05:27:41.133Z,96722.94
2023-05-10T05:32:43.175Z,96732.97
2023-05-10T05:37:46.537Z,96727.09
2023-05-10T05:42:48.568Z,96733.06
2023-05-10T05:47:50.531Z,96743.97
2023-05-10T05:52:53.912Z,96735.31
2023-05-10T05:57:55.930Z,96739.16
2023-05-10T06:02:58.108Z,96740.56
2023-05-10T06:08:02.166Z,96754.00
2023-05-10T06:13:04.269Z,96747.69
2023-05-10T06:18:07.030Z,96747.16
2023-05-10T06:23:10.291Z,96756.22
2023-05-10T06:28:12.415Z,96750.47
2023-05-10T06:33:14.497Z,96758.28
2023-05-10T06:38:17.810Z,96751.41
2023-05-10T06:43:19.782Z,96743.13
2023-05-10T06:48:21.802Z,96740.34
2023-05-10T06:53:25.335Z,96736.69
2023-05-10T06:58:27.277Z,96747.31
2023-05-10T07:03:29.281Z,96746.34
2023-05-10T07:08:32.824Z,96728.16
2023-05-10T07:13:35.559Z,96733.75
2023-05-10T07:18:37.544Z,96735.84
2023-05-10T07:23:42.469Z,96731.53
2023-05-10T07:28:46.556Z,96725.94
2023-05-10T07:33:48.596Z,96731.75
2023-05-10T07:38:52.078Z,96726.66
2023-05-10T07:43:54.020Z,96730.56
2023-05-10T07:48:56.097Z,96724.59
2023-05-10T07:53:59.552Z,96731.03
2023-05-10T07:59:02.545Z,96727.84
2023-05-10T08:04:04.981Z,96722.00
2023-05-10T08:09:08.488Z,96720.75
2023-05-10T08:14:10.613Z,96714.47
2023-05-10T08:19:12.610Z,96715.88
2023-05-10T08:24:16.228Z,96702.91
2023-05-10T08:29:18.288Z,96714.16
2023-05-10T08:34:20.237Z,96715.56
2023-05-10T08:39:30.249Z,96712.63
2023-05-10T08:44:35.177Z,96716.22
2023-05-10T08:49:38.470Z,96702.66
2023-05-10T08:54:42.514Z,96721.63
2023-05-10T08:59:44.470Z,96708.28
2023-05-10T09:04:46.833Z,96715.25
2023-05-10T09:09:50.786Z,96711.94
2023-05-10T09:14:55.064Z,96712.69
2023-05-10T09:20:00.544Z,96713.91
2023-05-10T09:25:09.463Z,96712.97
2023-05-10T09:30:16.478Z,96718.69
2023-05-10T09:35:20.494Z,96707.69
2023-05-10T09:40:25.224Z,96713.81
2023-05-10T09:45:29.420Z,96701.69
2023-05-10T09:50:31.792Z,96701.25
2023-05-10T09:55:43.793Z,96713.16
2023-05-10T10:00:48.753Z,96712.84
2023-05-10T10:05:51.224Z,96705.88
2023-05-10T10:10:54.681Z,96702.84
2023-05-10T10:15:56.680Z,96702.97
2023-05-10T10:20:59.057Z,96699.25
2023-05-10T10:26:02.787Z,96695.94
2023-05-10T10:31:22.173Z,96693.84
2023-05-10T10:36:24.251Z,96695.22
2023-05-10T10:41:31.298Z,96701.06
2023-05-10T10:46:35.350Z,96689.69
2023-05-10T10:51:38.189Z,96688.56
2023-05-10T10:56:41.454Z,96688.47
2023-05-10T11:01:45.493Z,96685.56
2023-05-10T11:06:47.733Z,96669.81
2023-05-10T11:11:52.177Z,96683.88
2023-05-10T11:16:54.299Z,96683.94
2023-05-10T11:22:14.399Z,96687.25
2023-05-10T11:27:17.825Z,96685.66
2023-05-10T11:32:20.676Z,96685.88
2023-05-10T11:37:22.675Z,96683.63
2023-05-10T11:42:26.010Z,96684.56
2023-05-10T11:47:28.026Z,96672.28
2023-05-10T11:52:30.073Z,96671.09
2023-05-10T11:57:33.491Z,96676.56
2023-05-10T12:02:35.863Z,96680.78
2023-05-10T12:07:38.008Z,96679.44
2023-05-10T12:12:45.528Z,96677.28
2023-05-10T12:17:48.055Z,96679.94
2023-05-10T12:22:54.446Z,96680.72
2023-05-10T12:28:01.638Z,96676.78
2023-05-10T12:33:08.976Z,96675.56
2023-05-10T12:38:26.244Z,96672.25
2023-05-10T12:43:29.896Z,96667.88
2023-05-10T12:48:32.428Z,96656.34
2023-05-10T12:53:34.349Z,96654.53
2023-05-10T12:58:37.500Z,96660.44
2023-05-10T13:03:39.465Z,96658.19
2023-05-10T13:08:41.406Z,96651.47
2023-05-10T13:13:44.840Z,96639.13
2023-05-10T13:18:46.838Z,96644.88
2023-05-10T13:23:48.876Z,96639.34
2023-05-10T13:28:52.860Z,96635.13
2023-05-10T13:33:54.980Z,96643.31
2023-05-10T13:38:56.928Z,96633.59
2023-05-10T13:44:00.395Z,96627.56
2023-05-10T13:49:02.963Z,96621.44
2023-05-10T13:54:05.058Z,96622.50
2023-05-10T13:59:08.788Z,96616.19
2023-05-10T14:04:11.607Z,96605.94
2023-05-10T14:09:13.836Z,96611.66
2023-05-10T14:14:17.228Z,96617.25
2023-05-10T14:19:19.440Z,96618.91
2023-05-10T14:24:21.451Z,96615.59
2023-05-10T14:29:24.922Z,96610.31
2023-05-10T14:34:26.923Z,96617.56
2023-05-10T14:39:31.139Z,96619.69
2023-05-10T14:44:34.464Z,96610.22
2023-05-10T14:49:36.581Z,96605.94
2023-05-10T14:54:38.589Z,96614.09
2023-05-10T14:59:42.126Z,96613.88
2023-05-10T15:04:44.488Z,96613.06
2023-05-10T15:09:47.180Z,96608.06
2023-05-10T15:14:50.617Z,96605.88
2023-05-10T15:19:52.752Z,96616.94
2023-05-10T15:24:54.831Z,96610.84
2023-05-10T15:30:00.210Z,96612.13
2023-05-10T15:35:03.510Z,96614.66
2023-05-10T15:40:07.202Z,96612.66
2023-05-10T15:45:12.112Z,96609.13
2023-05-10T15:50:15.541Z,96611.91
2023-05-10T15:55:18.020Z,96616.66
2023-05-10T16:00:22.008Z,96615.06
2023-05-10T16:05:24.233Z,96612.44
2023-05-10T16:10:26.082Z,96618.47
2023-05-10T16:15:29.623Z,96616.97
2023-05-10T16:20:33.010Z,96618.19
2023-05-10T16:25:35.736Z,96618.38
2023-05-10T16:30:39.328Z,96619.25
2023-05-10T16:35:41.416Z,96614.22
2023-05-10T16:40:43.409Z,96615.25
2023-05-10T16:45:46.771Z,96616.34
2023-05-10T16:50:49.011Z,96612.59
2023-05-10T16:55:51.078Z,96613.94
2023-05-10T17:00:55.177Z,96625.78
2023-05-10T17:05:57.251Z,96621.91
2023-05-10T17:11:01.383Z,96627.63
2023-05-10T17:16:05.044Z,96623.75
2023-05-10T17:21:07.164Z,96628.97
2023-05-10T17:26:09.270Z,96630.63
2023-05-10T17:31:12.760Z,96642.41
2023-05-10T17:36:14.807Z,96633.09
2023-05-10T17:41:17.128Z,96637.66
2023-05-10T17:46:20.478Z,96641.44
2023-05-10T17:51:22.581Z,96643.94
2023-05-10T17:56:25.432Z,96655.97
2023-05-10T18:01:28.878Z,96653.63
2023-05-10T18:06:30.933Z,96662.09
2023-05-10T18:11:34.620Z,96665.38
2023-05-10T18:16:38.076Z,96678.44
2023-05-10T18:21:40.258Z,96673.53
2023-05-10T18:26:43.015Z,96671.19
2023-05-10T18:31:46.389Z,96674.66
2023-05-10T18:36:48.677Z,96676.59
2023-05-10T18:41:50.772Z,96672.50
2023-05-10T18:46:54.296Z,96680.28
2023-05-10T18:51:56.396Z,96690.75
2023-05-10T18:56:58.772Z,96688.34
2023-05-10T19:02:02.601Z,96687.09
2023-05-10T19:07:04.701Z,96696.91
2023-05-10T19:12:06.854Z,96693.53
2023-05-10T19:17:10.232Z,96694.00
2023-05-10T19:22:12.314Z,96705.03
2023-05-10T19:27:15.801Z,96702.31
2023-05-10T19:32:19.428Z,96698.66
2023-05-10T19:37:21.489Z,96707.03
2023-05-10T19:42:23.428Z,96710.34
2023-05-10T19:47:26.844Z,96719.91
2023-05-10T19:52:28.798Z,96725.44
2023-05-10T19:57:30.945Z,96720.38
2023-05-10T20:02:34.297Z,96719.41
2023-05-10T20:07:36.960Z,96717.69
2023-05-10T20:12:39.043Z,96726.78
2023-05-10T20:17:42.441Z,96717.72
2023-05-10T20:22:44.682Z,96715.97
2023-05-10T20:27:46.898Z,96719.50
2023-05-10T20:32:50.325Z,96720.56
2023-05-10T20:37:52.414Z,96720.81
2023-05-10T20:42:54.499Z,96716.97
2023-05-10T20:47:58.197Z,96724.00
2023-05-10T20:53:01.053Z,96735.00
2023-05-10T20:58:04.824Z,96727.78
2023-05-10T21:03:08.547Z,96727.38
2023-05-10T21:08:10.568Z,96736.97
2023-05-10T21:13:12.578Z,96737.44
2023-05-10T21:18:15.878Z,96736.91
2023-05-10T21:23:17.861Z,96738.75
2023-05-10T21:28:19.890Z,96744.66
2023-05-10T21:33:23.741Z,96748.25
2023-05-10T21:38:27.650Z,96742.06
2023-05-10T21:43:29.589Z,96740.28
2023-05-10T21:48:32.887Z,96748.56
2023-05-10T21:53:36.167Z,96747.00
2023-05-10T21:58:38.175Z,96754.88
2023-05-10T22:03:41.480Z,96751.34
2023-05-10T22:08:43.971Z,96752.75
2023-05-10T22:13:45.918Z,96757.13
2023-05-10T22:18:49.267Z,96763.31
2023-05-10T22:23:51.792Z,96763.97
2023-05-10T22:28:53.729Z,96770.31
2023-05-10T22:33:57.133Z,96775.22
2023-05-10T22:38:59.080Z,96781.91
2023-05-10T22:44:01.303Z,96783.50
2023-05-10T22:49:04.817Z,96778.34
2023-05-10T22:54:07.283Z,96778.63
2023-05-10T22:59:09.538Z,96777.03
2023-05-10T23:04:12.825Z,96779.56
2023-05-10T23:09:14.816Z,96789.69
2023-05-10T23:14:16.953Z,96790.63
2023-05-10T23:19:20.243Z,96791.00
2023-05-10T23:24:22.247Z,96792.84
2023-05-10T23:29:26.184Z,96792.25
2023-05-10T23:34:29.685Z,96790.47
2023-05-10T23:39:31.875Z,96785.63
2023-05-10T23:44:33.837Z,96781.03
2023-05-10T23:49:37.990Z,96791.69
2023-05-10T23:54:39.920Z,96788.03
2023-05-10T23:59:41.871Z,96788.81
